首页
METAR-TAF:

METAR-TAF

机场 :

Menominee-Marinette Twin County Airport

Menominee, 密歇根州, 美国

纬度: 45-08N, 经度: 087-38W, 海拔: 191米

当前天气观测

该预报发布于14分钟前的14:56 UTC
风速5节,风向西南
温度 20°C
湿度 94%
气压 1008 hPa
能見度: 16.1公里
少量云层高于4600英尺
多云层高于9000英尺
阴天层高于11000英尺
小雨

METAR: KMNM 221456Z AUTO 23005KT 10SM -RA FEW046 BKN090 OVC110 20/19 A2977 RMK AO2 LTG DSNT NE SLP079 P0034 60051 T02000194 58009 $

时间: 11:10 (15:10 UTC)


TAF: 丢失

超过4000个机场的气象观测和天气预报(METAR&TAF报告)。

可查询的气象台以黄色和红色小点在地图上表示。

将鼠标移到小点上方,可查看气象台名称。

然后点击查看天气观测和预报。

如需切换地图:点击带黑十字的绿色按钮放大地图;点击带横线的绿色按钮缩小地图;或者点击绿色箭头查看邻近地区的地图。


METAR-TAF: